Time;durP1;ratioP1;P1;durP2;ratioP2;P2;SDS_P1;SDS_P2;PMS_P1;PMS_P2;Temp;Humidity;BMP_temperature;BMP_pressure;BME280_temperature;BME280_humidity;BME280_pressure;Samples;Min_cycle;Max_cycle;Signal;HPM_P1;HPM_P2
2022/11/08 00:01:33;;;;;;;86.13;15.57;;;9.90;99.90;;;;;;5068206;28;20607;-60
2022/11/08 00:04:01;;;;;;;58.73;11.30;;;9.60;99.90;;;;;;5062624;28;20563;-60
2022/11/08 00:14:45;;;;;;;47.43;8.93;;;;;;;;;;5065885;28;20528;-60
2022/11/08 00:17:12;;;;;;;44.83;10.93;;;;;;;;;;5067919;28;20481;-61
2022/11/08 00:19:39;;;;;;;51.27;9.50;;;;;;;;;;5065709;28;20919;-60
2022/11/08 00:22:08;;;;;;;31.60;8.10;;;9.40;99.90;;;;;;5075653;28;20515;-60
2022/11/08 00:24:35;;;;;;;75.53;15.03;;;;;;;;;;5062857;28;20469;-60
2022/11/08 00:27:02;;;;;;;71.40;14.23;;;;;;;;;;5077150;28;20486;-60
2022/11/08 00:29:28;;;;;;;52.30;13.03;;;9.50;99.90;;;;;;5069412;28;20482;-60
2022/11/08 00:31:55;;;;;;;44.40;8.50;;;9.40;99.90;;;;;;5067211;28;21500;-60
2022/11/08 00:34:22;;;;;;;83.83;16.50;;;9.40;99.90;;;;;;5065237;28;20817;-60
2022/11/08 00:36:49;;;;;;;33.30;7.50;;;;;;;;;;5067686;28;20482;-60
2022/11/08 00:39:17;;;;;;;43.47;8.80;;;9.30;99.90;;;;;;5069384;28;21070;-61
2022/11/08 00:41:44;;;;;;;36.67;6.83;;;;;;;;;;5065401;28;20479;-60
2022/11/08 00:44:11;;;;;;;66.57;10.00;;;9.30;99.90;;;;;;5067386;28;20517;-60
2022/11/08 00:46:40;;;;;;;52.40;12.20;;;9.20;99.90;;;;;;5060311;28;21076;-60
2022/11/08 00:49:07;;;;;;;30.07;7.43;;;8.90;99.90;;;;;;5078230;28;21345;-60
2022/11/08 00:51:34;;;;;;;53.20;10.53;;;8.70;99.90;;;;;;5043854;28;21193;-60
2022/11/08 00:54:01;;;;;;;43.17;9.40;;;;;;;;;;5069750;28;20491;-60
2022/11/08 00:56:29;;;;;;;65.67;13.63;;;8.70;99.90;;;;;;5068173;28;20524;-59
2022/11/08 00:58:57;;;;;;;46.17;8.00;;;8.60;99.90;;;;;;5067995;28;20838;-59
2022/11/08 01:01:24;;;;;;;56.67;12.33;;;;;;;;;;5069081;28;20483;-59
2022/11/08 01:03:52;;;;;;;40.07;10.47;;;8.60;99.90;;;;;;5071999;28;20905;-59
2022/11/08 01:06:21;;;;;;;44.73;9.57;;;8.70;99.90;;;;;;5067815;28;20986;-59
2022/11/08 01:08:49;;;;;;;40.47;7.90;;;;;;;;;;5070820;28;20475;-59
2022/11/08 01:11:17;;;;;;;62.63;11.60;;;8.60;99.90;;;;;;5071479;28;20483;-59
2022/11/08 01:13:46;;;;;;;39.97;8.13;;;8.60;99.90;;;;;;5070824;28;20479;-60
2022/11/08 01:16:14;;;;;;;31.50;8.00;;;;;;;;;;5064474;28;20489;-60
2022/11/08 01:18:41;;;;;;;27.00;7.10;;;;;;;;;;5078808;28;20985;-60
2022/11/08 01:21:08;;;;;;;51.53;8.27;;;;;;;;;;5069624;28;20478;-59
2022/11/08 01:23:35;;;;;;;62.13;12.57;;;8.40;99.90;;;;;;5071122;28;21477;-59
2022/11/08 01:26:04;;;;;;;32.57;8.73;;;8.40;99.90;;;;;;5067488;28;20837;-60
2022/11/08 01:28:31;;;;;;;54.53;11.73;;;;;;;;;;5068899;28;20664;-59
2022/11/08 01:31:03;;;;;;;48.53;9.20;;;;;;;;;;5071393;28;20479;-60
2022/11/08 01:33:29;;;;;;;39.93;9.30;;;8.40;99.90;;;;;;5069472;28;20489;-59
2022/11/08 01:35:56;;;;;;;35.20;9.33;;;;;;;;;;5069127;28;20478;-59
2022/11/08 01:38:24;;;;;;;55.17;12.70;;;;;;;;;;5066784;28;20475;-60
2022/11/08 01:40:50;;;;;;;36.23;7.80;;;8.30;99.90;;;;;;5069634;28;20536;-59
2022/11/08 01:43:42;;;;;;;52.30;9.83;;;8.30;99.90;;;;;;5071254;28;20486;-59
2022/11/08 01:46:38;;;;;;;42.23;7.50;;;8.30;99.90;;;;;;5049969;28;20486;-59
2022/11/08 01:49:26;;;;;;;32.63;5.90;;;;;;;;;;5068736;28;20476;-59
2022/11/08 01:51:59;;;;;;;35.10;7.63;;;8.00;99.90;;;;;;5070242;28;20475;-59
2022/11/08 01:54:32;;;;;;;32.30;9.50;;;8.10;99.90;;;;;;5064165;28;20469;-59
2022/11/08 01:57:01;;;;;;;36.00;9.43;;;7.90;99.90;;;;;;5057267;28;20474;-60
2022/11/08 01:59:29;;;;;;;38.67;9.77;;;;;;;;;;5069812;28;20582;-60
2022/11/08 02:01:58;;;;;;;34.80;8.60;;;7.70;99.90;;;;;;5069847;28;20482;-59
2022/11/08 02:04:25;;;;;;;65.00;13.60;;;7.70;99.90;;;;;;5070924;28;20478;-60
2022/11/08 02:06:53;;;;;;;43.37;9.40;;;11.30;99.90;;;;;;5071268;28;20479;-60
2022/11/08 02:09:20;;;;;;;41.83;8.57;;;7.80;99.90;;;;;;5072863;28;20890;-59
2022/11/08 02:11:48;;;;;;;28.17;7.70;;;;;;;;;;5067216;28;20583;-60
2022/11/08 02:14:17;;;;;;;44.70;9.97;;;7.90;99.90;;;;;;5066617;28;20474;-60
2022/11/08 02:16:44;;;;;;;34.53;7.90;;;7.90;99.90;;;;;;5070131;28;20486;-59
2022/11/08 02:19:24;;;;;;;36.63;8.13;;;7.90;99.90;;;;;;5071050;28;20477;-59
2022/11/08 02:21:55;;;;;;;39.93;6.90;;;6.30;99.80;;;;;;5066012;28;20888;-59
2022/11/08 02:24:24;;;;;;;49.77;9.30;;;;;;;;;;5075452;28;20592;-59
2022/11/08 02:26:54;;;;;;;45.60;9.53;;;5.70;99.60;;;;;;5074221;28;21127;-59
2022/11/08 02:29:30;;;;;;;49.77;11.50;;;7.60;99.90;;;;;;5067153;28;21010;-60
2022/11/08 02:31:58;;;;;;;26.07;9.53;;;7.50;99.90;;;;;;5063071;28;20489;-60
2022/11/08 02:34:27;;;;;;;55.27;13.03;;;7.50;99.90;;;;;;5065091;28;20482;-60
2022/11/08 02:36:54;;;;;;;37.43;8.07;;;;;;;;;;5078424;27;20500;-60
2022/11/08 02:39:21;;;;;;;30.57;8.90;;;;;;;;;;5074173;28;20477;-60
2022/11/08 02:41:49;;;;;;;36.40;7.57;;;7.20;99.90;;;;;;5069661;28;20485;-60
2022/11/08 02:44:16;;;;;;;30.23;8.20;;;7.10;99.90;;;;;;5085451;28;20473;-60
2022/11/08 02:46:43;;;;;;;19.23;6.20;;;7.10;99.90;;;;;;5060759;28;20481;-59
2022/11/08 02:49:10;;;;;;;26.97;6.30;;;7.10;99.90;;;;;;5087993;27;20470;-60
2022/11/08 02:51:37;;;;;;;47.07;10.47;;;7.10;99.90;;;;;;5072695;28;20486;-60
2022/11/08 02:54:03;;;;;;;39.93;9.07;;;7.20;99.90;;;;;;5074058;28;20691;-60
2022/11/08 02:56:31;;;;;;;50.87;10.30;;;;;;;;;;5061798;28;20485;-60
2022/11/08 02:58:59;;;;;;;31.30;7.57;;;7.00;99.90;;;;;;5078794;28;20496;-60
2022/11/08 03:01:25;;;;;;;56.03;14.80;;;7.00;99.90;;;;;;5070788;28;20485;-60
2022/11/08 03:03:52;;;;;;;31.83;8.87;;;7.00;99.90;;;;;;5064089;28;20489;-60
2022/11/08 03:06:19;;;;;;;29.40;9.20;;;2.60;98.10;;;;;;5071495;28;20482;-60
2022/11/08 03:08:45;;;;;;;29.83;6.60;;;7.00;99.90;;;;;;5071916;28;20951;-60
2022/11/08 03:11:12;;;;;;;42.40;8.17;;;6.90;99.80;;;;;;5075675;28;20490;-60
2022/11/08 03:13:39;;;;;;;36.00;9.27;;;6.90;99.70;;;;;;5067772;28;20482;-60
2022/11/08 03:16:08;;;;;;;26.70;8.23;;;6.80;99.90;;;;;;5079529;28;20671;-59
2022/11/08 03:18:35;;;;;;;48.60;10.67;;;;;;;;;;5049893;28;20562;-60
2022/11/08 03:21:02;;;;;;;47.70;10.43;;;;;;;;;;5053665;28;20494;-60
2022/11/08 03:23:29;;;;;;;68.33;16.33;;;;;;;;;;5080296;28;20494;-60
2022/11/08 03:25:55;;;;;;;27.70;6.97;;;6.70;99.90;;;;;;5072534;28;20833;-59
2022/11/08 03:28:22;;;;;;;39.57;7.50;;;4.20;98.90;;;;;;5075490;28;20845;-59
2022/11/08 03:30:51;;;;;;;31.93;7.13;;;6.40;99.90;;;;;;5063298;28;20498;-60
2022/11/08 03:33:20;;;;;;;44.03;8.17;;;6.30;99.90;;;;;;5073080;28;21463;-59
2022/11/08 03:35:48;;;;;;;27.00;6.23;;;6.20;99.90;;;;;;5057087;28;20475;-59
2022/11/08 03:38:15;;;;;;;44.53;7.57;;;6.30;99.90;;;;;;5074038;28;20933;-59
2022/11/08 03:40:43;;;;;;;28.57;7.37;;;;;;;;;;5063852;28;20587;-59
2022/11/08 03:43:09;;;;;;;35.80;7.33;;;6.30;99.90;;;;;;5071056;28;20470;-59
2022/11/08 03:45:36;;;;;;;49.00;10.67;;;5.70;99.90;;;;;;5069293;28;20803;-59
2022/11/08 03:48:03;;;;;;;35.13;7.87;;;;;;;;;;5070951;28;20475;-59
2022/11/08 03:50:32;;;;;;;55.40;13.23;;;;;;;;;;5066091;28;20890;-59
2022/11/08 03:52:59;;;;;;;37.20;8.03;;;;;;;;;;5067998;28;20482;-59
2022/11/08 03:55:27;;;;;;;53.73;12.70;;;6.40;99.90;;;;;;5069840;28;20475;-59
2022/11/08 03:57:54;;;;;;;46.50;9.30;;;;;;;;;;5073849;28;20558;-58
2022/11/08 04:00:24;;;;;;;39.20;9.30;;;6.40;99.90;;;;;;5073422;28;20479;-59
2022/11/08 04:02:51;;;;;;;39.67;7.17;;;6.40;99.90;;;;;;5075275;28;20594;-59
2022/11/08 04:05:18;;;;;;;59.00;9.90;;;;;;;;;;5071406;28;20825;-60
2022/11/08 04:07:46;;;;;;;52.63;8.77;;;6.20;99.60;;;;;;5070922;28;20478;-59
2022/11/08 04:10:13;;;;;;;34.60;7.23;;;6.00;99.40;;;;;;5071546;28;21225;-59
2022/11/08 04:15:26;;;;;;;65.77;13.80;;;;;;;;;;5054012;28;20512;-58
2022/11/08 04:23:26;;;;;;;77.30;15.20;;;5.70;99.90;;;;;;5076753;27;20540;-59
2022/11/08 04:25:54;;;;;;;49.43;9.43;;;;;;;;;;5074141;27;20972;-60
2022/11/08 04:28:25;;;;;;;39.73;10.80;;;5.50;99.90;;;;;;5076422;28;20810;-59
2022/11/08 04:30:53;;;;;;;26.03;7.93;;;;;;;;;;5075425;28;20474;-59
2022/11/08 04:33:19;;;;;;;33.73;10.00;;;7.40;99.90;;;;;;5072944;28;20860;-60
2022/11/08 04:35:47;;;;;;;23.13;6.10;;;5.60;99.90;;;;;;5070390;28;20685;-59
2022/11/08 04:38:14;;;;;;;24.83;6.90;;;5.60;99.90;;;;;;5075231;28;20708;-58
2022/11/08 04:40:42;;;;;;;32.03;7.57;;;5.50;99.90;;;;;;5069110;28;20751;-59
2022/11/08 04:43:09;;;;;;;30.37;7.80;;;5.60;99.90;;;;;;5071040;28;20482;-59
2022/11/08 04:45:36;;;;;;;56.40;11.60;;;5.60;99.90;;;;;;5072156;28;20881;-59
2022/11/08 04:48:03;;;;;;;30.23;8.70;;;5.60;99.90;;;;;;5072708;28;20497;-59
2022/11/08 04:50:29;;;;;;;41.37;12.23;;;5.60;99.90;;;;;;5069121;28;20487;-59
2022/11/08 04:52:56;;;;;;;24.13;7.03;;;5.60;99.90;;;;;;5073413;28;20487;-59
2022/11/08 04:55:23;;;;;;;34.03;9.77;;;5.70;99.90;;;;;;5068373;28;21191;-59
2022/11/08 04:57:52;;;;;;;18.10;6.27;;;5.60;99.90;;;;;;5070259;28;20487;-59
2022/11/08 05:00:19;;;;;;;25.93;6.33;;;;;;;;;;5070712;28;20482;-59
2022/11/08 05:02:46;;;;;;;19.87;6.63;;;5.60;99.90;;;;;;5072732;28;20988;-59
2022/11/08 05:05:12;;;;;;;21.33;6.37;;;5.60;99.80;;;;;;5072038;28;20474;-59
2022/11/08 05:07:39;;;;;;;37.13;7.93;;;5.40;99.50;;;;;;5070215;28;20719;-59
2022/11/08 05:10:07;;;;;;;32.53;8.07;;;5.40;99.90;;;;;;5074718;28;20887;-60
2022/11/08 05:12:34;;;;;;;47.73;12.63;;;5.40;99.90;;;;;;5069879;28;20478;-60
2022/11/08 05:15:02;;;;;;;44.77;7.70;;;5.40;99.90;;;;;;5068924;28;21013;-59
2022/11/08 05:17:29;;;;;;;51.53;14.50;;;;;;;;;;5063288;28;20493;-59
2022/11/08 05:25:24;;;;;;;18.57;4.90;;;5.00;99.90;;;;;;5060439;28;20469;-59
2022/11/08 05:27:51;;;;;;;42.93;9.90;;;5.00;99.90;;;;;;5071739;28;20479;-59
2022/11/08 05:30:19;;;;;;;44.30;9.80;;;8.50;99.90;;;;;;5071992;28;20479;-59
2022/11/08 05:32:46;;;;;;;15.13;5.90;;;4.70;99.90;;;;;;5067739;28;20478;-59
2022/11/08 05:35:13;;;;;;;21.40;7.00;;;4.70;99.90;;;;;;5071414;28;20482;-59
2022/11/08 05:37:41;;;;;;;26.43;8.03;;;4.60;99.90;;;;;;5068980;28;20585;-60
2022/11/08 05:40:10;;;;;;;32.03;6.27;;;4.60;99.90;;;;;;5065896;28;20915;-59
2022/11/08 05:42:37;;;;;;;33.03;8.33;;;4.70;99.90;;;;;;5059992;28;20893;-59
2022/11/08 05:45:05;;;;;;;32.00;8.00;;;;;;;;;;5079699;28;20504;-59
2022/11/08 05:47:33;;;;;;;52.80;12.10;;;4.90;99.90;;;;;;5072783;28;20486;-59
2022/11/08 05:49:59;;;;;;;25.53;8.10;;;5.00;99.90;;;;;;5058661;28;20651;-59
2022/11/08 05:52:26;;;;;;;53.10;13.07;;;;;;;;;;5084635;28;20479;-59
2022/11/08 05:54:53;;;;;;;20.30;6.70;;;;;;;;;;5060269;28;20847;-59
2022/11/08 05:57:20;;;;;;;46.87;10.57;;;5.10;99.90;;;;;;5070894;28;20826;-59
2022/11/08 05:59:47;;;;;;;26.40;7.17;;;5.20;99.90;;;;;;5069797;28;22064;-59
2022/11/08 06:02:13;;;;;;;25.07;6.10;;;5.30;99.90;;;;;;5068485;28;20489;-59
2022/11/08 06:04:42;;;;;;;34.97;8.77;;;;;;;;;;5068506;28;22167;-59
2022/11/08 06:07:09;;;;;;;46.27;10.13;;;;;;;;;;5068788;28;20482;-59
2022/11/08 06:09:35;;;;;;;52.33;10.03;;;5.40;99.90;;;;;;5061703;28;20977;-59
2022/11/08 06:12:02;;;;;;;28.43;8.00;;;5.40;99.90;;;;;;5079567;28;20561;-59
2022/11/08 06:14:29;;;;;;;76.50;19.83;;;5.40;99.90;;;;;;5072749;28;20508;-59
2022/11/08 06:16:55;;;;;;;39.50;11.27;;;5.40;99.90;;;;;;5071334;28;20975;-59
2022/11/08 06:19:22;;;;;;;48.00;11.20;;;8.80;99.90;;;;;;5074317;28;20579;-59
2022/11/08 06:21:51;;;;;;;32.37;7.47;;;;;;;;;;5074506;28;20486;-60
2022/11/08 06:24:18;;;;;;;62.47;11.00;;;5.40;99.90;;;;;;5074055;28;20474;-59
2022/11/08 06:26:45;;;;;;;23.40;7.63;;;;;;;;;;5073556;28;20486;-59
2022/11/08 06:29:12;;;;;;;34.57;7.63;;;;;;;;;;5072863;28;20505;-59
2022/11/08 06:31:39;;;;;;;45.13;9.10;;;;;;;;;;5074520;28;20918;-59
2022/11/08 06:34:06;;;;;;;44.83;10.30;;;5.50;99.90;;;;;;5074557;28;20474;-59
2022/11/08 06:36:33;;;;;;;77.17;14.43;;;5.50;99.90;;;;;;5075419;28;20465;-59
2022/11/08 06:39:01;;;;;;;52.00;8.57;;;;;;;;;;5074165;28;20501;-59
2022/11/08 06:41:29;;;;;;;73.03;13.37;;;;;;;;;;5075989;28;20484;-59
2022/11/08 06:43:56;;;;;;;41.47;9.00;;;;;;;;;;5075390;28;20528;-59
2022/11/08 06:46:24;;;;;;;47.03;11.13;;;5.70;99.90;;;;;;5064857;28;20490;-59
2022/11/08 06:48:51;;;;;;;43.70;7.83;;;5.60;99.90;;;;;;5082618;28;20863;-59
2022/11/08 06:51:18;;;;;;;53.33;8.87;;;5.50;99.90;;;;;;5074495;28;20481;-59
2022/11/08 06:53:45;;;;;;;25.70;6.67;;;5.40;99.90;;;;;;5072076;28;20477;-59
2022/11/08 06:56:13;;;;;;;43.00;9.30;;;;;;;;;;5083282;28;20478;-59
2022/11/08 06:58:40;;;;;;;36.47;9.40;;;5.40;99.90;;;;;;5069888;28;20982;-59
2022/11/08 07:01:09;;;;;;;38.33;10.37;;;5.50;99.90;;;;;;5070891;28;20478;-59
2022/11/08 07:03:36;;;;;;;48.70;11.33;;;5.50;99.90;;;;;;5068544;28;20474;-59
2022/11/08 07:06:04;;;;;;;21.13;5.50;;;5.50;99.90;;;;;;5073133;28;20478;-59
2022/11/08 07:08:31;;;;;;;39.93;10.47;;;;;;;;;;5072025;28;20486;-59
2022/11/08 07:10:58;;;;;;;32.57;7.63;;;;;;;;;;5076388;28;20475;-59
2022/11/08 07:13:27;;;;;;;48.87;13.07;;;;;;;;;;5073364;28;20904;-59
2022/11/08 07:15:57;;;;;;;35.83;8.10;;;5.80;99.90;;;;;;5075075;28;20478;-59
2022/11/08 07:18:25;;;;;;;63.40;11.80;;;;;;;;;;5071813;28;20796;-59
2022/11/08 07:20:52;;;;;;;37.87;7.83;;;5.90;99.90;;;;;;5072215;28;20905;-60
2022/11/08 07:23:19;;;;;;;34.70;8.37;;;5.80;99.90;;;;;;5064739;28;20495;-61
2022/11/08 07:25:45;;;;;;;25.10;6.60;;;5.80;99.90;;;;;;5081546;28;21029;-60
2022/11/08 07:28:15;;;;;;;48.43;10.53;;;;;;;;;;5068545;28;20490;-61
2022/11/08 07:30:43;;;;;;;27.40;8.10;;;5.90;99.90;;;;;;5071539;28;20834;-60
2022/11/08 07:33:10;;;;;;;29.33;7.83;;;5.90;99.90;;;;;;5072984;28;20486;-60
2022/11/08 07:35:37;;;;;;;34.30;9.33;;;6.10;99.90;;;;;;5073425;28;20485;-60
2022/11/08 07:38:03;;;;;;;23.23;7.67;;;6.20;99.90;;;;;;5072447;28;21006;-60
2022/11/08 07:40:30;;;;;;;44.63;13.97;;;6.40;99.90;;;;;;5071093;28;20494;-60
2022/11/08 07:42:58;;;;;;;29.03;8.20;;;7.80;99.90;;;;;;5073951;28;20498;-60
2022/11/08 07:45:26;;;;;;;47.53;14.23;;;9.30;99.90;;;;;;5070834;28;20874;-60
2022/11/08 07:47:58;;;;;;;29.60;9.53;;;;;;;;;;5072940;28;20483;-60
2022/11/08 07:50:25;;;;;;;35.40;9.77;;;11.80;99.40;;;;;;5073329;28;20698;-61
2022/11/08 07:52:52;;;;;;;22.13;7.73;;;13.10;98.60;;;;;;5069279;28;20493;-61
2022/11/08 07:55:19;;;;;;;19.07;7.90;;;;;;;;;;5076548;28;20490;-61
2022/11/08 07:57:46;;;;;;;14.83;4.93;;;15.40;95.50;;;;;;5078536;28;20484;-61
2022/11/08 08:00:14;;;;;;;11.23;5.90;;;16.50;94.80;;;;;;5073751;28;20490;-62
2022/11/08 08:02:41;;;;;;;23.27;7.87;;;17.30;93.00;;;;;;5075249;28;20862;-62
2022/11/08 08:05:09;;;;;;;37.90;11.20;;;17.90;91.80;;;;;;5077983;28;20474;-61
2022/11/08 08:07:37;;;;;;;20.00;10.83;;;18.80;91.90;;;;;;5069788;28;20482;-62
2022/11/08 08:10:04;;;;;;;24.27;7.53;;;;;;;;;;5072066;28;20943;-62
2022/11/08 08:12:31;;;;;;;31.30;9.63;;;;;;;;;;5071146;28;20891;-61
2022/11/08 08:14:59;;;;;;;30.90;10.23;;;;;;;;;;5073103;28;20474;-61
2022/11/08 08:17:25;;;;;;;30.60;12.93;;;21.20;90.10;;;;;;5070002;28;20927;-62
2022/11/08 08:19:52;;;;;;;31.37;9.30;;;21.60;89.60;;;;;;5071392;28;21025;-62
2022/11/08 08:22:20;;;;;;;26.27;9.27;;;21.90;88.40;;;;;;5073244;28;20979;-62
2022/11/08 08:24:47;;;;;;;17.40;8.90;;;22.10;87.60;;;;;;5064028;28;20956;-62
2022/11/08 08:27:14;;;;;;;27.90;6.00;;;22.10;84.80;;;;;;5084598;28;20482;-62
2022/11/08 08:29:41;;;;;;;16.60;5.13;;;21.90;85.90;;;;;;5072400;28;21038;-62
2022/11/08 08:32:08;;;;;;;22.63;6.03;;;;;;;;;;5070948;28;20489;-62
2022/11/08 08:34:35;;;;;;;32.97;8.87;;;21.20;87.70;;;;;;5065299;28;21050;-62
2022/11/08 08:37:01;;;;;;;27.03;9.40;;;21.50;86.20;;;;;;5071715;28;20482;-62
2022/11/08 08:39:30;;;;;;;34.23;10.00;;;21.40;85.10;;;;;;5066276;28;20876;-62
2022/11/08 08:41:57;;;;;;;21.13;4.87;;;;;;;;;;5067284;28;20477;-61
2022/11/08 08:44:23;;;;;;;19.07;8.87;;;19.80;87.30;;;;;;5068114;28;20474;-62
2022/11/08 08:46:50;;;;;;;12.17;4.53;;;18.90;88.30;;;;;;5071933;28;20926;-61
2022/11/08 08:49:17;;;;;;;21.07;4.10;;;18.20;90.20;;;;;;5070772;28;21146;-62
2022/11/08 08:51:44;;;;;;;22.77;5.67;;;17.80;91.30;;;;;;5072705;28;20478;-62
2022/11/08 08:54:13;;;;;;;26.83;8.03;;;17.30;90.20;;;;;;5071452;28;20471;-62
2022/11/08 08:56:41;;;;;;;28.03;4.60;;;17.00;91.30;;;;;;5073464;28;21112;-62
2022/11/08 08:59:08;;;;;;;31.57;6.13;;;16.60;90.90;;;;;;5072053;28;20836;-62
2022/11/08 09:01:35;;;;;;;28.43;10.03;;;16.30;90.90;;;;;;5070503;28;20493;-62
2022/11/08 09:04:02;;;;;;;38.70;8.33;;;;;;;;;;5066600;28;20966;-62
2022/11/08 09:06:28;;;;;;;32.90;12.50;;;16.10;91.20;;;;;;5082720;28;21367;-61
2022/11/08 09:08:55;;;;;;;23.67;5.80;;;16.00;91.60;;;;;;5071055;28;20663;-61
2022/11/08 09:11:22;;;;;;;22.37;5.47;;;16.00;91.90;;;;;;5071222;28;20478;-62
2022/11/08 09:13:50;;;;;;;12.37;4.30;;;16.00;91.90;;;;;;5070963;28;20490;-61
2022/11/08 09:16:17;;;;;;;15.40;5.67;;;;;;;;;;5066265;28;20958;-61
2022/11/08 09:18:44;;;;;;;22.93;4.50;;;16.00;92.10;;;;;;5069120;28;21006;-61
2022/11/08 09:21:10;;;;;;;17.47;6.43;;;16.00;92.00;;;;;;5072305;28;20474;-61
2022/11/08 09:23:37;;;;;;;22.60;7.87;;;16.00;91.60;;;;;;5060460;28;20719;-62
2022/11/08 09:26:05;;;;;;;26.23;5.93;;;;;;;;;;5086664;28;20873;-62
2022/11/08 09:28:33;;;;;;;34.30;10.47;;;16.10;92.20;;;;;;5064623;28;20503;-62
2022/11/08 09:31:02;;;;;;;32.70;7.90;;;;;;;;;;5079250;28;20566;-62
2022/11/08 09:33:29;;;;;;;48.57;13.33;;;16.20;91.70;;;;;;5071798;28;20509;-62
2022/11/08 09:35:56;;;;;;;16.93;5.80;;;16.20;91.30;;;;;;5072225;28;20585;-62
2022/11/08 09:38:23;;;;;;;24.67;6.57;;;;;;;;;;5070633;28;20490;-62
2022/11/08 09:41:00;;;;;;;35.30;7.87;;;16.10;91.90;;;;;;5068046;28;20553;-63
2022/11/08 09:43:45;;;;;;;29.13;9.00;;;16.20;91.50;;;;;;5069239;28;21095;-62
2022/11/08 09:46:22;;;;;;;24.03;7.10;;;16.30;91.70;;;;;;5069251;28;20478;-62
2022/11/08 09:48:50;;;;;;;28.53;7.23;;;;;;;;;;5069230;28;20469;-62
2022/11/08 09:51:21;;;;;;;54.23;9.10;;;16.30;92.30;;;;;;5072038;28;20482;-62
2022/11/08 09:53:51;;;;;;;21.13;5.00;;;16.40;91.70;;;;;;5066517;28;20511;-62
2022/11/08 09:56:24;;;;;;;30.90;5.43;;;16.30;91.40;;;;;;5069114;28;20687;-62
2022/11/08 09:58:54;;;;;;;52.30;8.73;;;16.30;91.20;;;;;;5068682;28;20710;-61
2022/11/08 10:01:23;;;;;;;30.63;6.40;;;16.40;91.10;;;;;;5057967;28;20783;-61
2022/11/08 10:03:53;;;;;;;21.60;5.40;;;16.50;92.50;;;;;;5070221;28;20562;-62
2022/11/08 10:06:54;;;;;;;21.77;7.30;;;16.50;90.90;;;;;;5070273;28;20484;-62
2022/11/08 10:09:38;;;;;;;31.07;7.80;;;16.60;91.50;;;;;;5067002;28;20474;-61
2022/11/08 10:12:17;;;;;;;32.00;7.43;;;16.60;91.10;;;;;;5054455;28;20473;-62
2022/11/08 10:14:55;;;;;;;14.40;4.70;;;16.70;91.40;;;;;;5073016;28;20486;-62
2022/11/08 10:17:45;;;;;;;23.33;5.97;;;16.80;91.00;;;;;;5065350;28;20844;-62
2022/11/08 10:20:23;;;;;;;20.33;6.60;;;16.80;91.10;;;;;;5049883;28;20469;-62
2022/11/08 10:22:58;;;;;;;13.87;5.00;;;16.80;91.10;;;;;;5069220;28;20518;-62
2022/11/08 10:25:30;;;;;;;38.97;9.67;;;16.80;90.80;;;;;;5070672;28;20494;-63
2022/11/08 10:28:26;;;;;;;19.63;4.10;;;16.90;91.20;;;;;;5064915;28;20478;-62
2022/11/08 10:30:54;;;;;;;50.53;8.53;;;;;;;;;;5057161;28;20847;-62
2022/11/08 10:33:27;;;;;;;51.80;11.10;;;17.00;91.90;;;;;;5076029;28;20475;-61
2022/11/08 10:35:58;;;;;;;28.00;7.67;;;17.00;91.20;;;;;;5070725;28;20583;-62
2022/11/08 10:38:29;;;;;;;33.97;6.60;;;;;;;;;;5074409;28;20926;-62
2022/11/08 10:41:04;;;;;;;18.73;6.40;;;17.20;91.20;;;;;;5071119;28;20994;-61
2022/11/08 10:43:35;;;;;;;24.07;8.50;;;17.30;91.40;;;;;;5067383;28;20490;-62
2022/11/08 10:46:03;;;;;;;25.30;7.30;;;17.40;91.20;;;;;;5062796;28;20496;-61
2022/11/08 10:48:33;;;;;;;26.03;10.50;;;;;;;;;;5063967;28;20641;-61
2022/11/08 10:51:00;;;;;;;35.23;6.10;;;17.50;91.70;;;;;;5067174;28;20478;-62
2022/11/08 10:53:29;;;;;;;22.40;11.33;;;17.40;90.90;;;;;;5063320;28;20511;-61
2022/11/08 10:56:00;;;;;;;20.80;7.80;;;17.30;90.90;;;;;;5071117;28;20914;-62
2022/11/08 10:58:32;;;;;;;22.87;6.97;;;;;;;;;;5062420;28;20474;-62
2022/11/08 11:01:03;;;;;;;26.70;8.30;;;;;;;;;;5071712;28;20520;-62
2022/11/08 11:03:31;;;;;;;41.90;9.50;;;17.60;92.30;;;;;;5071540;28;20544;-62
2022/11/08 11:05:59;;;;;;;20.83;6.30;;;17.80;91.60;;;;;;5074433;28;20469;-62
2022/11/08 11:08:26;;;;;;;43.90;12.57;;;17.90;92.50;;;;;;5071655;28;20512;-62
2022/11/08 11:10:53;;;;;;;22.87;5.70;;;17.80;92.10;;;;;;5075861;28;20775;-62
2022/11/08 11:13:21;;;;;;;26.17;5.77;;;17.80;91.00;;;;;;5075023;28;20501;-63
2022/11/08 11:15:50;;;;;;;23.20;4.03;;;;;;;;;;5078843;28;20716;-62
2022/11/08 11:18:30;;;;;;;20.67;5.07;;;17.70;91.70;;;;;;5064677;28;20509;-62
2022/11/08 11:21:01;;;;;;;20.40;5.80;;;17.70;92.10;;;;;;5068545;28;20478;-62
2022/11/08 11:23:35;;;;;;;39.80;12.50;;;;;;;;;;5083233;28;20471;-61
2022/11/08 11:26:03;;;;;;;27.07;7.23;;;17.70;91.30;;;;;;5072318;28;21029;-62
2022/11/08 11:28:29;;;;;;;51.67;12.60;;;17.50;90.70;;;;;;5073116;28;20471;-61
2022/11/08 11:31:00;;;;;;;27.73;5.80;;;17.50;90.80;;;;;;5073072;28;20490;-61
2022/11/08 11:33:29;;;;;;;61.47;12.63;;;17.40;90.80;;;;;;5075917;28;20647;-62
2022/11/08 11:35:58;;;;;;;32.40;8.20;;;;;;;;;;5075357;28;20482;-61
2022/11/08 11:38:35;;;;;;;33.93;11.77;;;17.60;91.90;;;;;;5072262;28;20477;-61
2022/11/08 11:41:05;;;;;;;27.77;6.57;;;;;;;;;;5074046;28;20486;-62
2022/11/08 11:43:36;;;;;;;53.73;8.97;;;17.70;91.00;;;;;;5064073;28;20465;-63
2022/11/08 11:46:09;;;;;;;18.97;6.83;;;;;;;;;;5079392;28;20492;-61
2022/11/08 11:48:42;;;;;;;16.33;6.80;;;17.70;91.30;;;;;;5074348;28;21238;-61
2022/11/08 11:51:10;;;;;;;28.00;6.20;;;17.80;92.60;;;;;;5078090;28;20483;-62
2022/11/08 11:53:40;;;;;;;33.87;7.97;;;;;;;;;;5074331;28;20486;-62
2022/11/08 11:56:39;;;;;;;44.87;8.40;;;17.80;90.70;;;;;;5070707;28;20484;-62
2022/11/08 11:59:50;;;;;;;53.90;8.83;;;17.90;90.50;;;;;;5068400;28;20487;-62
2022/11/08 12:02:45;;;;;;;30.00;6.53;;;18.10;91.60;;;;;;5071485;28;20482;-62
2022/11/08 12:05:40;;;;;;;24.63;6.87;;;18.20;92.30;;;;;;5072567;28;20482;-61
2022/11/08 12:08:29;;;;;;;20.07;5.40;;;18.30;91.20;;;;;;5070241;28;20445;-62
2022/11/08 12:11:14;;;;;;;27.43;4.87;;;18.40;91.90;;;;;;5061122;28;20457;-62
2022/11/08 12:14:04;;;;;;;26.80;7.40;;;18.20;90.50;;;;;;5059063;28;20477;-62
2022/11/08 12:16:38;;;;;;;114.23;15.70;;;18.40;91.10;;;;;;5063778;28;20486;-62
2022/11/08 12:19:23;;;;;;;96.00;10.87;;;18.40;91.50;;;;;;5059259;28;20481;-62
2022/11/08 12:21:59;;;;;;;38.57;7.73;;;18.30;91.20;;;;;;5071130;28;20486;-62
2022/11/08 12:24:42;;;;;;;76.87;13.67;;;;;;;;;;5065740;28;20614;-63
2022/11/08 12:27:21;;;;;;;61.50;10.60;;;18.50;91.60;;;;;;5068202;28;20490;-62
2022/11/08 12:29:56;;;;;;;26.97;5.97;;;18.50;91.30;;;;;;5068388;28;20806;-62
2022/11/08 12:32:36;;;;;;;32.37;9.40;;;18.30;91.30;;;;;;5069263;28;20473;-61
2022/11/08 12:35:18;;;;;;;25.73;6.00;;;18.30;91.90;;;;;;5077350;28;20759;-62
2022/11/08 12:38:07;;;;;;;15.07;4.97;;;18.10;91.40;;;;;;5071285;28;20466;-63
2022/11/08 12:40:43;;;;;;;25.73;7.43;;;18.00;91.80;;;;;;5070182;28;20634;-62
2022/11/08 12:43:22;;;;;;;15.73;4.87;;;18.00;91.80;;;;;;5062420;28;20474;-62
2022/11/08 12:46:01;;;;;;;6.70;4.20;;;17.90;91.70;;;;;;5059973;28;20477;-62
2022/11/08 12:48:41;;;;;;;16.83;7.47;;;17.80;91.80;;;;;;5070933;28;20482;-62
2022/11/08 12:51:13;;;;;;;13.03;5.20;;;;;;;;;;5072359;28;20441;-62
2022/11/08 12:53:48;;;;;;;17.50;4.70;;;17.70;91.60;;;;;;5069138;28;20810;-63
2022/11/08 12:56:19;;;;;;;16.87;5.57;;;17.70;91.90;;;;;;5070420;28;21012;-62
2022/11/08 12:58:49;;;;;;;22.97;3.80;;;17.80;91.60;;;;;;5067047;28;20485;-62
2022/11/08 13:01:18;;;;;;;29.73;5.20;;;17.90;92.10;;;;;;5070766;28;20474;-62
2022/11/08 13:04:05;;;;;;;18.13;4.53;;;18.00;91.50;;;;;;5054013;28;20707;-63
2022/11/08 13:06:41;;;;;;;23.73;7.10;;;18.20;92.10;;;;;;5069075;28;20491;-63
2022/11/08 13:09:15;;;;;;;28.97;5.93;;;18.30;92.10;;;;;;5070788;28;20522;-63
2022/11/08 13:11:46;;;;;;;42.47;7.50;;;19.00;91.80;;;;;;5071684;28;20487;-63
2022/11/08 13:14:17;;;;;;;26.63;6.90;;;18.50;91.90;;;;;;5064878;28;20489;-62
2022/11/08 13:17:05;;;;;;;20.43;4.57;;;18.50;90.90;;;;;;5065404;28;20509;-62
2022/11/08 13:19:57;;;;;;;24.63;9.70;;;18.60;91.20;;;;;;5060430;28;20868;-62
2022/11/08 13:22:42;;;;;;;22.13;8.00;;;;;;;;;;5072325;28;20490;-62
2022/11/08 13:25:33;;;;;;;26.93;6.40;;;18.60;91.00;;;;;;5075739;28;20653;-62
2022/11/08 13:28:00;;;;;;;15.13;6.00;;;;;;;;;;5062191;28;20482;-62
2022/11/08 13:30:39;;;;;;;33.20;9.10;;;18.70;91.20;;;;;;5076208;28;20524;-62
2022/11/08 13:33:19;;;;;;;17.53;5.60;;;18.80;91.00;;;;;;5065291;28;20486;-62
2022/11/08 13:35:54;;;;;;;19.47;4.07;;;18.80;91.10;;;;;;5070355;28;20837;-63
2022/11/08 13:38:30;;;;;;;39.03;10.90;;;18.80;90.60;;;;;;5065389;28;21002;-61
2022/11/08 13:41:15;;;;;;;62.23;10.07;;;18.80;91.20;;;;;;5073174;28;20986;-63
2022/11/08 13:43:43;;;;;;;36.00;7.00;;;;;;;;;;5073880;28;20560;-63